createdAt,value
2018-05-16T00:01:56.855Z,95.60
2018-05-16T00:03:57.797Z,94.90
2018-05-16T00:05:58.736Z,94.40
2018-05-16T00:08:00.401Z,92.90
2018-05-16T00:10:01.332Z,92.90
2018-05-16T00:12:02.260Z,93.30
2018-05-16T00:14:03.940Z,93.80
2018-05-16T00:16:04.918Z,93.80
2018-05-16T00:18:05.840Z,94.00
2018-05-16T00:20:07.504Z,95.00
2018-05-16T00:22:08.450Z,94.70
2018-05-16T00:24:09.385Z,94.40
2018-05-16T00:26:10.315Z,94.80
2018-05-16T00:28:11.988Z,93.90
2018-05-16T00:30:12.913Z,94.10
2018-05-16T00:32:14.593Z,94.50
2018-05-16T00:34:15.544Z,94.50
2018-05-16T00:36:16.487Z,94.50
2018-05-16T00:38:17.416Z,94.70
2018-05-16T00:40:19.092Z,94.70
2018-05-16T00:42:20.024Z,94.70
2018-05-16T00:44:21.683Z,95.40
2018-05-16T00:46:23.362Z,94.40
2018-05-16T00:48:24.289Z,94.40
2018-05-16T00:50:25.943Z,96.00
2018-05-16T00:52:26.888Z,95.70
2018-05-16T00:54:27.817Z,95.50
2018-05-16T00:56:28.755Z,95.20
2018-05-16T00:58:29.684Z,94.00
2018-05-16T01:00:30.609Z,94.90
2018-05-16T01:02:31.553Z,95.40
2018-05-16T01:04:32.464Z,95.40
2018-05-16T01:06:33.425Z,95.30
2018-05-16T01:08:35.075Z,95.60
2018-05-16T01:10:35.985Z,95.60
2018-05-16T01:12:36.909Z,95.70
2018-05-16T01:14:37.826Z,96.30
2018-05-16T01:16:38.753Z,95.60
2018-05-16T01:18:39.669Z,95.40
2018-05-16T01:20:40.617Z,96.30
2018-05-16T01:22:41.532Z,95.70
2018-05-16T01:24:42.456Z,95.30
2018-05-16T01:26:43.408Z,95.60
2018-05-16T01:28:44.340Z,95.10
2018-05-16T01:30:45.259Z,95.50
2018-05-16T01:32:46.180Z,95.50
2018-05-16T01:34:47.105Z,95.20
2018-05-16T01:36:48.888Z,95.60
2018-05-16T01:38:49.806Z,95.80
2018-05-16T01:40:50.733Z,95.30
2018-05-16T01:42:52.392Z,95.60
2018-05-16T01:44:54.056Z,95.70
2018-05-16T01:46:55.029Z,95.70
2018-05-16T01:49:08.251Z,95.70
2018-05-16T01:51:09.168Z,95.20
2018-05-16T01:53:10.857Z,95.80
2018-05-16T01:55:11.787Z,95.80
2018-05-16T01:57:13.465Z,95.70
2018-05-16T01:59:14.391Z,95.70
2018-05-16T02:01:16.049Z,95.70
2018-05-16T02:03:17.721Z,95.70
2018-05-16T02:05:19.409Z,95.10
2018-05-16T02:07:20.334Z,95.10
2018-05-16T02:09:21.269Z,95.30
2018-05-16T02:11:22.930Z,94.10
2018-05-16T02:13:24.607Z,94.70
2018-05-16T02:15:25.541Z,94.70
2018-05-16T02:17:27.213Z,95.30
2018-05-16T02:19:28.136Z,95.30
2018-05-16T02:21:29.077Z,95.90
2018-05-16T02:23:30.082Z,96.00
2018-05-16T02:25:30.916Z,96.00
2018-05-16T02:27:32.585Z,96.10
2018-05-16T02:29:33.496Z,96.00
2018-05-16T02:31:35.165Z,96.80
2018-05-16T02:33:36.080Z,96.40
2018-05-16T02:35:37.005Z,96.00
2018-05-16T02:37:37.941Z,95.70
2018-05-16T02:39:38.866Z,96.00
2018-05-16T02:41:39.780Z,95.60
2018-05-16T02:43:41.456Z,96.00
2018-05-16T02:45:42.395Z,96.00
2018-05-16T02:47:43.371Z,95.60
2018-05-16T02:49:44.282Z,94.80
2018-05-16T02:51:45.981Z,95.30
2018-05-16T02:53:46.905Z,95.30
2018-05-16T02:55:47.816Z,95.10
2018-05-16T02:57:48.764Z,95.70
2018-05-16T02:59:50.409Z,95.60
2018-05-16T03:01:51.345Z,95.70
2018-05-16T03:03:52.273Z,95.50
2018-05-16T03:05:53.205Z,95.40
2018-05-16T03:07:54.873Z,96.70
2018-05-16T03:09:55.797Z,96.70
2018-05-16T03:11:56.710Z,96.40
2018-05-16T03:13:57.821Z,95.90
2018-05-16T03:15:58.752Z,96.40
2018-05-16T03:17:59.673Z,96.50
2018-05-16T03:20:01.320Z,97.80
2018-05-16T03:22:02.989Z,98.00
2018-05-16T03:24:04.637Z,98.00
2018-05-16T03:26:05.552Z,98.00
2018-05-16T03:28:06.463Z,97.90
2018-05-16T03:30:07.375Z,97.80
2018-05-16T03:32:08.282Z,96.70
2018-05-16T03:34:09.189Z,96.30
2018-05-16T03:36:10.105Z,97.10
2018-05-16T03:38:11.021Z,96.60
2018-05-16T03:40:11.941Z,95.90
2018-05-16T03:42:13.598Z,95.90
2018-05-16T03:44:14.499Z,95.90
2018-05-16T03:46:15.422Z,96.30
2018-05-16T03:48:16.349Z,96.00
2018-05-16T03:50:17.260Z,96.50
2018-05-16T03:52:18.927Z,96.30
2018-05-16T03:54:19.827Z,96.30
2018-05-16T03:56:20.748Z,96.80
2018-05-16T03:58:33.909Z,96.90
2018-05-16T04:00:47.337Z,96.90
2018-05-16T04:03:00.774Z,96.60
2018-05-16T04:05:02.481Z,96.90
2018-05-16T04:07:04.137Z,97.10
2018-05-16T04:09:05.809Z,96.90
2018-05-16T04:11:07.473Z,97.20
2018-05-16T04:13:09.135Z,97.60
2018-05-16T04:15:10.794Z,97.30
2018-05-16T04:17:12.457Z,96.60
2018-05-16T04:19:14.104Z,94.60
2018-05-16T04:21:15.757Z,95.50
2018-05-16T04:23:16.693Z,95.50
2018-05-16T04:25:17.605Z,95.90
2018-05-16T04:27:18.524Z,96.20
2018-05-16T04:29:19.538Z,96.60
2018-05-16T04:31:20.383Z,96.90
2018-05-16T04:33:21.295Z,97.00
2018-05-16T04:35:22.209Z,97.30
2018-05-16T04:37:23.128Z,97.10
2018-05-16T04:39:24.033Z,97.20
2018-05-16T04:41:24.948Z,97.70
2018-05-16T04:43:25.862Z,97.40
2018-05-16T04:45:26.793Z,97.50
2018-05-16T04:47:27.705Z,97.80
2018-05-16T04:49:28.638Z,98.20
2018-05-16T04:51:29.552Z,98.30
2018-05-16T04:53:31.203Z,98.70
2018-05-16T04:55:32.108Z,98.70
2018-05-16T04:57:33.052Z,98.90
2018-05-16T04:59:34.000Z,99.20
2018-05-16T05:01:34.939Z,99.80
2018-05-16T05:03:35.904Z,99.80
2018-05-16T05:05:36.856Z,99.90
2018-05-16T05:07:37.825Z,99.90
2018-05-16T05:09:38.782Z,99.90
2018-05-16T05:11:40.453Z,99.90
2018-05-16T05:13:42.149Z,99.90
2018-05-16T05:15:43.073Z,99.90
2018-05-16T05:17:44.034Z,99.90
2018-05-16T05:19:44.973Z,99.90
2018-05-16T05:21:45.977Z,99.90
2018-05-16T05:23:46.920Z,99.90
2018-05-16T05:25:47.889Z,99.90
2018-05-16T05:27:48.834Z,99.90
2018-05-16T05:29:49.748Z,99.90
2018-05-16T05:31:50.682Z,99.90
2018-05-16T05:33:51.627Z,99.90
2018-05-16T05:35:52.556Z,99.90
2018-05-16T05:37:53.505Z,99.90
2018-05-16T05:39:54.443Z,99.90
2018-05-16T05:41:55.395Z,99.90
2018-05-16T05:43:56.330Z,99.90
2018-05-16T05:45:57.249Z,99.90
2018-05-16T05:47:58.216Z,99.90
2018-05-16T05:49:59.154Z,99.90
2018-05-16T05:52:00.080Z,99.90
2018-05-16T05:54:01.029Z,99.90
2018-05-16T05:56:02.153Z,99.90
2018-05-16T05:58:03.096Z,99.90
2018-05-16T06:00:04.047Z,99.90
2018-05-16T06:02:04.972Z,99.90
2018-05-16T06:04:05.926Z,99.90
2018-05-16T06:06:06.850Z,99.90
2018-05-16T06:08:07.798Z,99.60
2018-05-16T06:10:08.713Z,98.90
2018-05-16T06:12:09.713Z,99.10
2018-05-16T06:14:10.650Z,99.90
2018-05-16T06:16:11.585Z,99.70
2018-05-16T06:18:12.543Z,99.10
2018-05-16T06:20:13.478Z,99.60
2018-05-16T06:22:14.409Z,99.60
2018-05-16T06:24:15.336Z,99.40
2018-05-16T06:26:16.269Z,99.10
2018-05-16T06:28:17.209Z,99.10
2018-05-16T06:30:18.129Z,99.00
2018-05-16T06:32:19.803Z,99.40
2018-05-16T06:34:21.484Z,99.20
2018-05-16T06:36:22.429Z,99.20
2018-05-16T06:38:23.353Z,99.90
2018-05-16T06:40:25.033Z,99.90
2018-05-16T06:42:25.948Z,99.90
2018-05-16T06:44:26.890Z,99.90
2018-05-16T06:46:27.811Z,98.80
2018-05-16T06:48:28.733Z,99.70
2018-05-16T06:50:30.135Z,99.50
2018-05-16T06:52:31.465Z,99.10
2018-05-16T06:54:32.389Z,99.40
2018-05-16T06:56:33.359Z,99.70
2018-05-16T06:58:34.319Z,99.00
2018-05-16T07:00:35.243Z,98.20
2018-05-16T07:02:36.150Z,97.80
2018-05-16T07:04:37.093Z,97.40
2018-05-16T07:06:38.017Z,97.30
2018-05-16T07:08:39.677Z,98.80
2018-05-16T07:10:41.352Z,96.10
2018-05-16T07:12:42.344Z,96.10
2018-05-16T07:14:43.284Z,96.80
2018-05-16T07:16:44.212Z,98.30
2018-05-16T07:18:45.157Z,98.40
2018-05-16T07:20:46.097Z,97.20
2018-05-16T07:22:47.039Z,95.60
2018-05-16T07:24:47.981Z,95.70
2018-05-16T07:26:48.902Z,96.20
2018-05-16T07:28:50.594Z,97.00
2018-05-16T07:30:51.524Z,96.80
2018-05-16T07:32:53.200Z,96.60
2018-05-16T07:34:54.137Z,96.60
2018-05-16T07:36:55.089Z,96.70
2018-05-16T07:38:56.037Z,96.20
2018-05-16T07:40:56.981Z,96.20
2018-05-16T07:42:57.913Z,96.50
2018-05-16T07:44:58.855Z,96.90
2018-05-16T07:47:00.601Z,97.30
2018-05-16T07:49:01.444Z,97.30
2018-05-16T07:51:02.392Z,97.00
2018-05-16T07:53:03.336Z,97.50
2018-05-16T07:55:04.269Z,96.80
2018-05-16T07:57:05.204Z,96.70
2018-05-16T07:59:06.153Z,97.60
2018-05-16T08:01:07.084Z,97.90
2018-05-16T08:03:08.007Z,97.30
2018-05-16T08:05:08.972Z,97.60
2018-05-16T08:07:09.898Z,97.90
2018-05-16T08:09:10.828Z,98.30
2018-05-16T08:11:11.758Z,97.80
2018-05-16T08:13:13.448Z,99.10
2018-05-16T08:15:14.409Z,99.10
2018-05-16T08:17:15.328Z,97.70
2018-05-16T08:19:16.393Z,96.80
2018-05-16T08:21:17.316Z,98.30
2018-05-16T08:23:18.981Z,98.60
2018-05-16T08:25:20.661Z,98.60
2018-05-16T08:27:21.603Z,98.60
2018-05-16T08:29:22.542Z,98.60
2018-05-16T08:31:23.456Z,98.70
2018-05-16T08:33:24.376Z,98.70
2018-05-16T08:35:25.329Z,99.10
2018-05-16T08:37:26.263Z,99.50
2018-05-16T08:39:27.189Z,99.90
2018-05-16T08:41:28.115Z,99.60
2018-05-16T08:43:29.050Z,99.40
2018-05-16T08:45:30.713Z,99.80
2018-05-16T08:47:31.669Z,99.80
2018-05-16T08:49:32.604Z,99.90
2018-05-16T08:51:34.288Z,99.90
2018-05-16T08:53:35.225Z,99.90
2018-05-16T08:55:36.170Z,99.90
2018-05-16T08:57:37.112Z,99.90
2018-05-16T08:59:38.045Z,99.90
2018-05-16T09:01:39.700Z,99.80
2018-05-16T09:03:41.375Z,99.50
2018-05-16T09:05:42.321Z,99.50
2018-05-16T09:07:43.280Z,99.30
2018-05-16T09:09:44.219Z,99.90
2018-05-16T09:11:45.132Z,99.90
2018-05-16T09:13:46.799Z,99.90
2018-05-16T09:15:47.729Z,98.40
2018-05-16T09:17:48.665Z,98.60
2018-05-16T09:19:49.584Z,97.90
2018-05-16T09:21:51.242Z,98.90
2018-05-16T09:23:52.156Z,98.90
2018-05-16T09:25:53.812Z,98.00
2018-05-16T09:27:55.490Z,97.90
2018-05-16T09:29:56.421Z,97.90
2018-05-16T09:31:58.081Z,97.90
2018-05-16T09:33:59.001Z,97.90
2018-05-16T09:35:59.913Z,98.90
2018-05-16T09:38:00.848Z,99.60
2018-05-16T09:40:01.792Z,99.30
2018-05-16T09:42:02.720Z,99.30
2018-05-16T09:44:04.392Z,98.90
2018-05-16T09:46:05.369Z,98.90
2018-05-16T09:48:06.242Z,99.80
2018-05-16T09:50:07.181Z,99.90
2018-05-16T09:52:08.097Z,99.90
2018-05-16T09:54:09.008Z,99.90
2018-05-16T09:56:10.150Z,99.90
2018-05-16T09:58:11.800Z,99.90
2018-05-16T10:00:12.742Z,99.90
2018-05-16T10:02:13.692Z,99.90
2018-05-16T10:04:15.368Z,99.90
2018-05-16T10:06:17.035Z,95.80
2018-05-16T10:08:17.958Z,95.80
2018-05-16T10:10:19.658Z,96.70
2018-05-16T10:12:20.585Z,96.60
2018-05-16T10:14:22.258Z,95.10
2018-05-16T10:16:23.184Z,95.10
2018-05-16T10:18:24.865Z,95.80
2018-05-16T10:20:25.816Z,96.00
2018-05-16T10:22:26.760Z,95.60
2018-05-16T10:24:27.688Z,96.90
2018-05-16T10:26:29.337Z,96.70
2018-05-16T10:28:30.256Z,96.70
2018-05-16T10:30:31.192Z,97.80
2018-05-16T10:32:32.128Z,98.00
2018-05-16T10:34:33.070Z,97.90
2018-05-16T10:36:33.970Z,98.60
2018-05-16T10:38:35.628Z,98.60
2018-05-16T10:40:36.597Z,98.50
2018-05-16T10:42:37.524Z,98.10
2018-05-16T10:44:39.188Z,99.90
2018-05-16T10:46:40.852Z,99.90
2018-05-16T10:48:42.514Z,99.20
2018-05-16T10:50:44.300Z,99.20
2018-05-16T10:52:45.196Z,99.20
2018-05-16T10:54:46.129Z,99.90
2018-05-16T10:56:47.080Z,99.90
2018-05-16T10:58:47.989Z,99.90
2018-05-16T11:00:48.937Z,99.90
2018-05-16T11:02:49.955Z,99.90
2018-05-16T11:04:51.620Z,99.90
2018-05-16T11:06:53.281Z,99.90
2018-05-16T11:08:54.969Z,99.90
2018-05-16T11:10:55.896Z,99.90
2018-05-16T11:12:57.615Z,99.90
2018-05-16T11:14:58.564Z,99.90
2018-05-16T11:16:59.487Z,99.90
2018-05-16T11:19:00.406Z,99.90
2018-05-16T11:21:01.360Z,99.90
2018-05-16T11:23:02.370Z,99.90
2018-05-16T11:25:04.102Z,99.90
2018-05-16T11:27:05.041Z,99.90
2018-05-16T11:29:05.957Z,99.90
2018-05-16T11:31:06.897Z,99.90
2018-05-16T11:33:07.841Z,99.90
2018-05-16T11:35:08.769Z,99.90
2018-05-16T11:37:09.717Z,99.90
2018-05-16T11:39:11.396Z,99.90
2018-05-16T11:41:12.330Z,99.90
2018-05-16T11:43:13.996Z,99.90
2018-05-16T11:45:14.926Z,99.90
2018-05-16T11:47:16.616Z,99.90
2018-05-16T11:49:17.540Z,99.90
2018-05-16T11:51:19.212Z,99.90
2018-05-16T11:53:20.873Z,99.90
2018-05-16T11:55:22.572Z,99.90
2018-05-16T11:57:23.489Z,99.90
2018-05-16T11:59:24.428Z,99.90
2018-05-16T12:01:25.368Z,99.90
2018-05-16T12:03:27.040Z,99.90
2018-05-16T12:05:27.981Z,99.90
2018-05-16T12:07:29.119Z,99.90
2018-05-16T12:09:30.795Z,99.90
2018-05-16T12:11:32.447Z,99.90
2018-05-16T12:13:34.105Z,99.90
2018-05-16T12:15:35.772Z,99.90
2018-05-16T12:17:37.457Z,99.90
2018-05-16T12:19:38.392Z,99.90
2018-05-16T12:21:40.078Z,99.90
2018-05-16T12:23:40.981Z,99.90
2018-05-16T12:25:41.917Z,99.90
2018-05-16T12:27:42.837Z,99.90
2018-05-16T12:29:43.744Z,99.90
2018-05-16T12:31:44.664Z,99.90
2018-05-16T12:33:45.577Z,99.90
2018-05-16T12:35:46.498Z,99.90
2018-05-16T12:37:47.413Z,99.90
2018-05-16T12:39:48.343Z,99.90
2018-05-16T12:41:49.263Z,99.90
2018-05-16T12:43:50.201Z,99.90
2018-05-16T12:45:51.674Z,99.90
2018-05-16T12:47:52.600Z,99.90
2018-05-16T12:49:53.516Z,99.90
2018-05-16T12:51:54.488Z,99.90
2018-05-16T12:53:55.417Z,99.90
2018-05-16T12:55:56.365Z,99.90
2018-05-16T12:57:57.293Z,99.90
2018-05-16T12:59:58.208Z,99.90
2018-05-16T13:01:59.125Z,99.90
2018-05-16T13:04:00.048Z,99.90
2018-05-16T13:06:00.973Z,99.90
2018-05-16T13:08:01.891Z,99.90
2018-05-16T13:10:03.561Z,99.90
2018-05-16T13:12:05.225Z,99.90
2018-05-16T13:14:06.925Z,99.90
2018-05-16T13:16:08.597Z,99.90
2018-05-16T13:18:09.632Z,99.90
2018-05-16T13:20:10.497Z,99.90
2018-05-16T13:22:11.425Z,99.90
2018-05-16T13:24:12.346Z,99.90
2018-05-16T13:26:13.301Z,99.90
2018-05-16T13:28:14.220Z,99.90
2018-05-16T13:30:15.184Z,99.90
2018-05-16T13:32:16.089Z,99.90
2018-05-16T13:34:17.013Z,99.90
2018-05-16T13:36:17.974Z,97.70
2018-05-16T13:38:18.857Z,97.10
2018-05-16T13:40:20.533Z,99.60
2018-05-16T13:42:21.455Z,99.80
2018-05-16T13:44:23.116Z,97.70
2018-05-16T13:46:24.100Z,97.90
2018-05-16T13:48:25.013Z,97.80
2018-05-16T13:50:25.932Z,97.70
2018-05-16T13:52:26.852Z,97.40
2018-05-16T13:54:27.772Z,96.30
2018-05-16T13:56:28.708Z,95.90
2018-05-16T13:58:30.359Z,95.90
2018-05-16T14:00:32.032Z,94.60
2018-05-16T14:02:33.691Z,95.50
2018-05-16T14:04:35.348Z,94.40
2018-05-16T14:06:37.051Z,93.70
2018-05-16T14:08:37.953Z,93.80
2018-05-16T14:10:39.619Z,92.20
2018-05-16T14:12:41.297Z,94.40
2018-05-16T14:14:42.229Z,94.40
2018-05-16T14:16:43.929Z,95.30
2018-05-16T14:18:44.877Z,95.30
2018-05-16T14:20:45.822Z,94.50
2018-05-16T14:22:46.765Z,95.00
2018-05-16T14:24:47.685Z,94.30
2018-05-16T14:26:49.349Z,93.00
2018-05-16T14:28:51.133Z,93.00
2018-05-16T14:30:52.073Z,92.80
2018-05-16T14:32:52.992Z,94.00
2018-05-16T14:34:53.921Z,91.00
2018-05-16T14:36:54.893Z,94.00
2018-05-16T14:38:56.557Z,76.50
2018-05-16T14:40:57.491Z,76.50
2018-05-16T14:42:59.276Z,84.20
2018-05-16T14:45:00.836Z,84.40
2018-05-16T14:47:01.814Z,84.40
2018-05-16T14:49:03.134Z,79.90
2018-05-16T14:51:04.107Z,78.20
2018-05-16T14:53:05.041Z,83.00
2018-05-16T14:55:05.965Z,81.30
2018-05-16T14:57:07.632Z,85.80
2018-05-16T14:59:08.555Z,85.80
2018-05-16T15:01:10.239Z,83.80
2018-05-16T15:03:11.164Z,84.40
2018-05-16T15:05:12.081Z,84.60
2018-05-16T15:07:13.301Z,91.20
2018-05-16T15:09:14.254Z,86.80
2018-05-16T15:11:15.187Z,79.60
2018-05-16T15:13:16.118Z,84.10
2018-05-16T15:15:17.186Z,80.30
2018-05-16T15:17:18.152Z,80.10
2018-05-16T15:19:19.074Z,82.40
2018-05-16T15:21:20.070Z,85.70
2018-05-16T15:23:20.929Z,86.00
2018-05-16T15:25:22.572Z,91.80
2018-05-16T15:27:23.542Z,91.70
2018-05-16T15:29:24.449Z,94.20
2018-05-16T15:31:25.371Z,91.70
2018-05-16T15:33:26.341Z,93.50
2018-05-16T15:35:27.263Z,93.30
2018-05-16T15:37:28.936Z,93.10
2018-05-16T15:39:29.896Z,93.00
2018-05-16T15:41:30.842Z,94.30
2018-05-16T15:43:31.777Z,95.20
2018-05-16T15:45:32.723Z,94.90
2018-05-16T15:47:33.661Z,94.90
2018-05-16T15:49:34.581Z,96.70
2018-05-16T15:51:35.537Z,96.70
2018-05-16T15:53:36.461Z,96.60
2018-05-16T15:55:37.391Z,97.00
2018-05-16T15:57:39.069Z,97.10
2018-05-16T15:59:40.015Z,97.10
2018-05-16T16:01:40.928Z,98.50
2018-05-16T16:03:42.620Z,99.00
2018-05-16T16:05:44.312Z,99.10
2018-05-16T16:07:45.248Z,99.10
2018-05-16T16:09:46.209Z,99.10
2018-05-16T16:11:47.142Z,99.00
2018-05-16T16:13:48.107Z,99.80
2018-05-16T16:15:49.068Z,99.10
2018-05-16T16:17:50.079Z,98.80
2018-05-16T16:19:51.055Z,98.20
2018-05-16T16:21:51.980Z,97.80
2018-05-16T16:23:52.901Z,98.30
2018-05-16T16:25:53.845Z,97.00
2018-05-16T16:27:54.827Z,97.00
2018-05-16T16:29:55.757Z,96.90
2018-05-16T16:31:56.707Z,97.60
2018-05-16T16:33:57.653Z,98.50
2018-05-16T16:35:58.585Z,98.20
2018-05-16T16:37:59.504Z,98.50
2018-05-16T16:40:01.176Z,97.10
2018-05-16T16:42:02.861Z,97.10
2018-05-16T16:44:03.796Z,97.10
2018-05-16T16:46:04.727Z,97.10
2018-05-16T16:48:06.421Z,97.10
2018-05-16T16:50:07.378Z,97.10
2018-05-16T16:52:08.328Z,97.00
2018-05-16T16:54:09.266Z,97.20
2018-05-16T16:56:10.241Z,98.00
2018-05-16T16:58:11.171Z,98.10
2018-05-16T17:00:12.136Z,98.00
2018-05-16T17:02:13.074Z,98.30
2018-05-16T17:04:14.013Z,98.60
2018-05-16T17:06:17.089Z,98.60
2018-05-16T17:08:18.335Z,99.20
2018-05-16T17:10:19.272Z,99.20
2018-05-16T17:12:20.281Z,99.30
2018-05-16T17:14:21.962Z,99.90
2018-05-16T17:16:23.654Z,99.90
2018-05-16T17:18:24.577Z,99.90
2018-05-16T17:20:25.582Z,99.90
2018-05-16T17:22:27.178Z,99.80
2018-05-16T17:24:28.096Z,99.80
2018-05-16T17:26:29.056Z,99.10
2018-05-16T17:28:30.723Z,96.90
2018-05-16T17:30:32.379Z,94.20
2018-05-16T17:32:34.053Z,94.90
2018-05-16T17:34:35.737Z,94.70
2018-05-16T17:36:36.664Z,94.70
2018-05-16T17:38:37.590Z,95.30
2018-05-16T17:40:38.516Z,94.90
2018-05-16T17:42:39.444Z,94.50
2018-05-16T17:44:40.364Z,93.90
2018-05-16T17:46:41.302Z,95.30
2018-05-16T17:48:42.222Z,95.00
2018-05-16T17:50:43.893Z,95.20
2018-05-16T17:52:45.564Z,95.40
2018-05-16T17:54:46.488Z,95.40
2018-05-16T17:56:49.965Z,95.70
2018-05-16T17:58:50.888Z,95.60
2018-05-16T18:00:51.873Z,95.90
2018-05-16T18:02:52.779Z,96.20
2018-05-16T18:04:53.704Z,96.20
2018-05-16T18:06:54.644Z,96.00
2018-05-16T18:08:55.592Z,96.50
2018-05-16T18:10:56.514Z,96.70
2018-05-16T18:16:01.083Z,96.50
2018-05-16T18:18:02.768Z,96.50
2018-05-16T18:20:03.696Z,96.50
2018-05-16T18:22:05.468Z,96.80
2018-05-16T18:24:06.392Z,96.80
2018-05-16T18:26:07.307Z,96.70
2018-05-16T18:28:08.240Z,96.60
2018-05-16T18:30:09.157Z,96.70
2018-05-16T18:32:10.081Z,96.90
2018-05-16T18:34:11.756Z,97.30
2018-05-16T18:36:13.415Z,97.20
2018-05-16T18:38:15.092Z,97.40
2018-05-16T18:40:16.014Z,97.40
2018-05-16T18:42:17.756Z,97.90
2018-05-16T18:44:18.604Z,97.90
2018-05-16T18:46:19.527Z,98.10
2018-05-16T18:48:20.537Z,98.30
2018-05-16T18:50:21.461Z,98.50
2018-05-16T18:52:23.135Z,98.50
2018-05-16T18:54:24.064Z,98.50
2018-05-16T18:56:25.730Z,98.60
2018-05-16T18:58:27.425Z,98.50
2018-05-16T19:00:28.359Z,98.50
2018-05-16T19:02:29.277Z,98.60
2018-05-16T19:04:30.220Z,98.80
2018-05-16T19:06:31.891Z,98.50
2018-05-16T19:08:33.561Z,98.20
2018-05-16T19:10:35.240Z,98.80
2018-05-16T19:12:36.176Z,98.80
2018-05-16T19:14:37.920Z,98.50
2018-05-16T19:16:38.861Z,98.50
2018-05-16T19:18:40.460Z,98.00
2018-05-16T19:20:41.403Z,97.90
2018-05-16T19:22:42.329Z,97.70
2018-05-16T19:24:44.005Z,97.70
2018-05-16T19:26:44.937Z,97.70
2018-05-16T19:28:46.588Z,97.40
2018-05-16T19:30:48.312Z,97.30
2018-05-16T19:32:49.277Z,97.40
2018-05-16T19:34:51.216Z,97.20
2018-05-16T19:36:52.133Z,96.70
2018-05-16T19:38:53.066Z,96.30
2018-05-16T19:40:54.740Z,96.20
2018-05-16T19:42:55.685Z,96.20
2018-05-16T19:44:57.357Z,96.10
2018-05-16T19:46:58.308Z,96.10
2018-05-16T19:48:59.257Z,96.20
2018-05-16T19:51:00.219Z,96.10
2018-05-16T19:53:01.188Z,96.50
2018-05-16T19:55:02.105Z,96.40
2018-05-16T19:57:03.157Z,96.40
2018-05-16T19:59:04.069Z,96.30
2018-05-16T20:01:05.021Z,96.50
2018-05-16T20:03:05.968Z,95.90
2018-05-16T20:05:06.916Z,96.40
2018-05-16T20:07:07.847Z,96.80
2018-05-16T20:09:09.571Z,95.80
2018-05-16T20:11:10.457Z,95.80
2018-05-16T20:13:12.156Z,96.20
2018-05-16T20:15:13.093Z,96.20
2018-05-16T20:17:14.760Z,97.10
2018-05-16T20:19:15.717Z,97.00
2018-05-16T20:21:16.668Z,96.90
2018-05-16T20:23:17.585Z,96.20
2018-05-16T20:25:18.545Z,97.10
2018-05-16T20:27:19.481Z,96.60
2018-05-16T20:29:20.495Z,96.90
2018-05-16T20:31:21.394Z,96.90
2018-05-16T20:33:22.328Z,97.10
2018-05-16T20:35:23.347Z,97.00
2018-05-16T20:37:25.093Z,97.00
2018-05-16T20:39:26.759Z,97.30
2018-05-16T20:41:28.434Z,97.40
2018-05-16T20:43:29.390Z,97.30
2018-05-16T20:45:30.325Z,97.60
2018-05-16T20:47:31.252Z,97.60
2018-05-16T20:49:32.937Z,97.70
2018-05-16T20:51:33.886Z,97.70
2018-05-16T20:53:34.972Z,98.00
2018-05-16T20:55:36.012Z,97.40
2018-05-16T20:57:37.007Z,97.90
2018-05-16T20:59:38.679Z,97.90
2018-05-16T21:01:39.623Z,97.90
2018-05-16T21:03:41.300Z,98.20
2018-05-16T21:05:42.235Z,98.20
2018-05-16T21:07:43.210Z,98.10
2018-05-16T21:09:44.128Z,98.00
2018-05-16T21:11:45.064Z,98.10
2018-05-16T21:13:46.740Z,98.20
2018-05-16T21:15:47.808Z,98.20
2018-05-16T21:17:49.524Z,98.00
2018-05-16T21:19:51.272Z,98.30
2018-05-16T21:21:52.233Z,98.30
2018-05-16T21:23:53.157Z,98.40
2018-05-16T21:25:54.193Z,97.80
2018-05-16T21:27:55.112Z,98.40
2018-05-16T21:29:56.058Z,98.20
2018-05-16T21:31:57.030Z,98.70
2018-05-16T21:33:57.974Z,98.40
2018-05-16T21:35:58.906Z,98.60
2018-05-16T21:37:59.917Z,98.10
2018-05-16T21:40:01.593Z,98.60
2018-05-16T21:42:02.577Z,98.60
2018-05-16T21:44:03.512Z,98.20
2018-05-16T21:46:04.444Z,98.50
2018-05-16T21:48:05.440Z,98.30
2018-05-16T21:50:06.406Z,98.60
2018-05-16T21:52:08.091Z,98.90
2018-05-16T21:54:09.077Z,98.60
2018-05-16T21:56:10.094Z,98.70
2018-05-16T21:58:11.014Z,98.70
2018-05-16T22:00:12.685Z,98.80
2018-05-16T22:02:13.607Z,98.80
2018-05-16T22:04:15.309Z,98.80
2018-05-16T22:06:16.266Z,98.80
2018-05-16T22:08:17.233Z,98.90
2018-05-16T22:10:18.152Z,98.90
2018-05-16T22:12:19.156Z,98.90
2018-05-16T22:14:20.082Z,99.00
2018-05-16T22:16:21.020Z,99.10
2018-05-16T22:18:21.978Z,99.30
2018-05-16T22:20:22.906Z,99.20
2018-05-16T22:22:23.841Z,99.10
2018-05-16T22:24:24.764Z,99.40
2018-05-16T22:26:25.708Z,99.50
2018-05-16T22:28:26.657Z,99.30
2018-05-16T22:30:33.753Z,99.80
2018-05-16T22:32:40.881Z,99.50
2018-05-16T22:34:47.891Z,99.40
2018-05-16T22:36:55.781Z,99.20
2018-05-16T22:39:02.910Z,99.20
2018-05-16T22:41:09.854Z,99.20
2018-05-16T22:43:10.779Z,99.40
2018-05-16T22:45:17.760Z,99.50
2018-05-16T22:47:18.713Z,99.50
2018-05-16T22:49:19.633Z,99.60
2018-05-16T22:51:20.561Z,99.60
2018-05-16T22:53:22.229Z,99.30
2018-05-16T22:55:23.160Z,99.30
2018-05-16T22:57:24.824Z,99.30
2018-05-16T22:59:26.508Z,99.20
2018-05-16T23:01:28.152Z,99.30
2018-05-16T23:03:29.820Z,99.60
2018-05-16T23:05:31.489Z,99.50
2018-05-16T23:07:32.429Z,99.40
2018-05-16T23:09:34.120Z,99.40
2018-05-16T23:11:35.075Z,99.40
2018-05-16T23:13:36.009Z,99.30
2018-05-16T23:15:36.920Z,99.30
2018-05-16T23:17:38.594Z,99.20
2018-05-16T23:19:39.517Z,99.20
2018-05-16T23:21:41.207Z,99.20
2018-05-16T23:23:42.132Z,99.20
2018-05-16T23:25:43.825Z,98.90
2018-05-16T23:27:44.761Z,98.90
2018-05-16T23:29:45.681Z,98.70
2018-05-16T23:31:47.372Z,98.60
2018-05-16T23:33:48.293Z,98.60
2018-05-16T23:35:49.977Z,99.10
2018-05-16T23:37:50.968Z,99.10
2018-05-16T23:39:51.900Z,98.70
2018-05-16T23:41:52.845Z,98.90
2018-05-16T23:43:53.796Z,98.30
2018-05-16T23:45:54.732Z,98.40
2018-05-16T23:47:55.685Z,99.00
2018-05-16T23:49:56.607Z,98.70
2018-05-16T23:51:57.568Z,98.60
2018-05-16T23:53:58.494Z,98.60
2018-05-16T23:55:59.396Z,98.70
2018-05-16T23:58:00.339Z,98.80
